createdAt,value
2022-11-02T00:22:33.482Z,56.10
2022-11-02T00:57:35.341Z,66.37
2022-11-02T02:03:24.570Z,68.87
2022-11-02T02:29:21.616Z,73.57
2022-11-02T03:09:18.749Z,114.00
2022-11-02T03:30:08.421Z,133.97
2022-11-02T04:00:36.938Z,155.73
2022-11-02T04:35:33.972Z,179.57
2022-11-02T04:56:14.224Z,195.70
2022-11-02T05:21:50.029Z,227.43
2022-11-02T05:52:02.845Z,195.77
2022-11-02T06:17:42.273Z,194.73
2022-11-02T06:43:15.254Z,155.13
2022-11-02T07:28:26.749Z,64.73
2022-11-02T07:49:01.496Z,44.30
2022-11-02T08:13:49.007Z,46.27
2022-11-02T08:34:44.365Z,43.33
2022-11-02T08:59:51.744Z,40.07
2022-11-02T11:11:16.014Z,32.10
2022-11-02T11:31:38.095Z,27.97
2022-11-02T11:57:31.742Z,29.07
2022-11-02T12:57:50.821Z,19.83
2022-11-02T13:48:38.505Z,23.20
2022-11-02T14:29:02.977Z,30.37
2022-11-02T15:09:59.383Z,38.53
2022-11-02T15:55:18.686Z,54.47
2022-11-02T16:21:19.987Z,60.17
2022-11-02T16:56:28.720Z,95.70
2022-11-02T17:21:47.720Z,77.10
2022-11-02T18:12:45.544Z,49.47
2022-11-02T18:32:49.089Z,32.97
2022-11-02T19:13:08.675Z,14.93
2022-11-02T19:43:34.272Z,17.03
2022-11-02T20:09:21.658Z,19.20
2022-11-02T20:39:55.287Z,18.73
2022-11-02T21:05:20.763Z,19.40
2022-11-02T21:45:18.381Z,18.30
2022-11-02T22:11:07.477Z,25.37
2022-11-02T22:36:02.567Z,30.83
2022-11-02T22:56:38.380Z,27.47
2022-11-02T23:17:01.034Z,19.70
2022-11-02T23:52:12.831Z,12.80
